Time,TemperatureF,DewpointF,PressureIn,WindDirection,WindDirectionDegrees,WindSpeedMPH,WindSpeedGustMPH,Humidity,HourlyPrecipIn,Conditions,Clouds,dailyrainin,SoftwareType,DateUTC
2013-09-11 00:09:00,77.0,69.0,30.02,NE,47,0.0,1.0,76,0.00,,,0.00,weatherlink.com 1.10,2013-09-11 04:09:00,
2013-09-11 00:24:00,76.7,69.0,30.02,NE,49,0.0,1.0,77,0.00,,,0.00,weatherlink.com 1.10,2013-09-11 04:24:00,
2013-09-11 00:39:00,76.4,69.0,30.02,SW,229,0.0,1.0,79,0.00,,,0.00,weatherlink.com 1.10,2013-09-11 04:39:00,
2013-09-11 00:54:00,76.2,70.0,30.02,SW,231,1.0,5.0,80,0.00,,,0.00,weatherlink.com 1.10,2013-09-11 04:54:00,
2013-09-11 01:09:00,76.0,70.0,30.02,West,267,0.0,1.0,81,0.00,,,0.00,weatherlink.com 1.10,2013-09-11 05:09:00,
2013-09-11 01:24:00,75.8,70.0,30.02,WSW,255,0.0,2.0,82,0.00,,,0.00,weatherlink.com 1.10,2013-09-11 05:24:00,
2013-09-11 01:39:00,75.7,70.0,30.02,SW,234,0.0,1.0,83,0.00,,,0.00,weatherlink.com 1.10,2013-09-11 05:39:00,
2013-09-11 01:54:00,75.5,70.0,30.02,SW,234,0.0,1.0,84,0.00,,,0.00,weatherlink.com 1.10,2013-09-11 05:54:00,
2013-09-11 02:09:00,75.2,70.0,30.02,WSW,243,0.0,1.0,84,0.00,,,0.00,weatherlink.com 1.10,2013-09-11 06:09:00,
2013-09-11 02:25:00,74.9,70.0,30.02,SSW,212,0.0,0.0,85,0.00,,,0.00,weatherlink.com 1.10,2013-09-11 06:25:00,
2013-09-11 02:39:00,74.6,70.0,30.02,SW,223,0.0,0.0,86,0.00,,,0.00,weatherlink.com 1.10,2013-09-11 06:39:00,
2013-09-11 02:55:00,74.4,70.0,30.02,SSW,198,0.0,1.0,86,0.00,,,0.00,weatherlink.com 1.10,2013-09-11 06:55:00,
2013-09-11 03:10:00,74.1,70.0,30.02,SSW,198,0.0,0.0,87,0.00,,,0.00,weatherlink.com 1.10,2013-09-11 07:10:00,
2013-09-11 03:25:00,73.9,70.0,30.02,SSW,198,0.0,0.0,87,0.00,,,0.00,weatherlink.com 1.10,2013-09-11 07:25:00,
2013-09-11 03:40:00,73.9,70.0,30.02,South,178,0.0,1.0,87,0.00,,,0.00,weatherlink.com 1.10,2013-09-11 07:40:00,
2013-09-11 03:55:00,73.9,70.0,30.02,West,268,0.0,2.0,88,0.00,,,0.00,weatherlink.com 1.10,2013-09-11 07:55:00,
2013-09-11 04:10:00,73.7,70.0,30.02,South,188,0.0,2.0,88,0.00,,,0.00,weatherlink.com 1.10,2013-09-11 08:10:00,
2013-09-11 04:25:00,73.4,70.0,30.02,South,188,0.0,0.0,88,0.00,,,0.00,weatherlink.com 1.10,2013-09-11 08:25:00,
2013-09-11 04:40:00,73.1,70.0,30.01,South,188,0.0,0.0,89,0.00,,,0.00,weatherlink.com 1.10,2013-09-11 08:40:00,
2013-09-11 04:56:00,72.8,70.0,30.02,South,188,0.0,1.0,90,0.00,,,0.00,weatherlink.com 1.10,2013-09-11 08:56:00,
2013-09-11 05:10:00,72.6,70.0,30.01,South,188,0.0,0.0,90,0.00,,,0.00,weatherlink.com 1.10,2013-09-11 09:10:00,
2013-09-11 05:25:00,72.5,70.0,30.01,SW,221,0.0,1.0,90,0.00,,,0.00,weatherlink.com 1.10,2013-09-11 09:25:00,
2013-09-11 05:40:00,72.5,70.0,30.01,SSE,167,0.0,0.0,90,0.00,,,0.00,weatherlink.com 1.10,2013-09-11 09:40:00,
2013-09-11 05:55:00,72.4,70.0,30.02,NNE,29,0.0,2.0,91,0.00,,,0.00,weatherlink.com 1.10,2013-09-11 09:55:00,
2013-09-11 06:10:00,72.4,69.0,30.02,SSW,209,0.0,4.0,90,0.00,,,0.00,weatherlink.com 1.10,2013-09-11 10:10:00,
2013-09-11 06:25:00,72.3,69.0,30.02,SSW,209,0.0,0.0,90,0.00,,,0.00,weatherlink.com 1.10,2013-09-11 10:25:00,
2013-09-11 06:40:00,72.1,69.0,30.02,SSW,209,0.0,0.0,91,0.00,,,0.00,weatherlink.com 1.10,2013-09-11 10:40:00,
2013-09-11 06:55:00,71.9,69.0,30.02,SSW,209,0.0,0.0,91,0.00,,,0.00,weatherlink.com 1.10,2013-09-11 10:55:00,
2013-09-11 07:10:00,71.6,69.0,30.02,SSW,209,0.0,0.0,91,0.00,,,0.00,weatherlink.com 1.10,2013-09-11 11:10:00,
2013-09-11 07:25:00,71.4,69.0,30.03,SSW,209,0.0,0.0,91,0.00,,,0.00,weatherlink.com 1.10,2013-09-11 11:25:00,
2013-09-11 07:40:00,71.2,69.0,30.04,SSW,209,0.0,0.0,92,0.00,,,0.00,weatherlink.com 1.10,2013-09-11 11:40:00,
2013-09-11 07:55:00,71.3,69.0,30.04,SSW,209,0.0,0.0,92,0.00,,,0.00,weatherlink.com 1.10,2013-09-11 11:55:00,
2013-09-11 08:10:00,71.4,69.0,30.04,SSW,209,0.0,0.0,92,0.00,,,0.00,weatherlink.com 1.10,2013-09-11 12:10:00,
2013-09-11 08:25:00,71.7,69.0,30.04,SW,229,0.0,1.0,92,0.00,,,0.00,weatherlink.com 1.10,2013-09-11 12:25:00,
2013-09-11 08:40:00,72.1,70.0,30.04,SSW,209,0.0,1.0,92,0.00,,,0.00,weatherlink.com 1.10,2013-09-11 12:40:00,
2013-09-11 08:55:00,72.5,70.0,30.04,SSW,197,0.0,1.0,91,0.00,,,0.00,weatherlink.com 1.10,2013-09-11 12:55:00,
2013-09-11 09:10:00,73.2,70.0,30.04,North,5,0.0,1.0,90,0.00,,,0.00,weatherlink.com 1.10,2013-09-11 13:10:00,
2013-09-11 09:25:00,73.9,71.0,30.04,West,271,0.0,1.0,90,0.00,,,0.00,weatherlink.com 1.10,2013-09-11 13:25:00,
2013-09-11 09:40:00,74.8,71.0,30.04,SSW,209,0.0,4.0,88,0.00,,,0.00,weatherlink.com 1.10,2013-09-11 13:40:00,
2013-09-11 09:55:00,75.8,71.0,30.04,SSE,165,0.0,3.0,86,0.00,,,0.00,weatherlink.com 1.10,2013-09-11 13:55:00,
2013-09-11 10:10:00,76.7,71.0,30.04,West,271,0.0,5.0,82,0.00,,,0.00,weatherlink.com 1.10,2013-09-11 14:10:00,
2013-09-11 10:25:00,78.1,72.0,30.04,NW,308,3.0,7.0,81,0.00,,,0.00,weatherlink.com 1.10,2013-09-11 14:25:00,
2013-09-11 10:40:00,79.4,72.0,30.03,WNW,302,0.0,3.0,79,0.00,,,0.00,weatherlink.com 1.10,2013-09-11 14:40:00,
2013-09-11 10:55:00,80.5,72.0,30.03,West,263,0.0,5.0,75,0.00,,,0.00,weatherlink.com 1.10,2013-09-11 14:55:00,
2013-09-11 11:10:00,81.6,73.0,30.02,WSW,240,0.0,6.0,74,0.00,,,0.00,weatherlink.com 1.10,2013-09-11 15:10:00,
2013-09-11 11:25:00,82.9,72.0,30.02,West,264,3.0,6.0,70,0.00,,,0.00,weatherlink.com 1.10,2013-09-11 15:25:00,
2013-09-11 11:41:00,84.1,73.0,30.02,West,280,2.0,9.0,69,0.00,,,0.00,weatherlink.com 1.10,2013-09-11 15:41:00,
2013-09-11 11:56:00,86.0,74.0,30.01,WNW,299,2.0,3.0,67,0.00,,,0.00,weatherlink.com 1.10,2013-09-11 15:56:00,
2013-09-11 12:11:00,87.5,73.0,30.01,SW,225,0.0,3.0,62,0.00,,,0.00,weatherlink.com 1.10,2013-09-11 16:11:00,
2013-09-11 12:26:00,88.4,74.0,30.00,West,277,3.0,6.0,62,0.00,,,0.00,weatherlink.com 1.10,2013-09-11 16:26:00,
2013-09-11 12:41:00,90.3,74.0,30.00,WNW,296,6.0,6.0,58,0.00,,,0.00,weatherlink.com 1.10,2013-09-11 16:41:00,
2013-09-11 12:56:00,91.1,75.0,30.00,WSW,246,0.0,5.0,59,0.00,,,0.00,weatherlink.com 1.10,2013-09-11 16:56:00,
2013-09-11 13:11:00,91.4,72.0,29.99,NNE,32,0.0,7.0,54,0.00,,,0.00,weatherlink.com 1.10,2013-09-11 17:11:00,
2013-09-11 13:26:00,91.8,74.0,29.99,SSW,192,1.0,4.0,56,0.00,,,0.00,weatherlink.com 1.10,2013-09-11 17:26:00,
2013-09-11 13:41:00,93.5,74.0,29.98,SW,220,0.0,5.0,53,0.00,,,0.00,weatherlink.com 1.10,2013-09-11 17:41:00,
2013-09-11 13:56:00,94.1,73.0,29.98,WNW,286,3.0,5.0,50,0.00,,,0.00,weatherlink.com 1.10,2013-09-11 17:56:00,
2013-09-11 14:11:00,92.5,71.0,29.98,WNW,290,0.0,7.0,50,0.00,,,0.00,weatherlink.com 1.10,2013-09-11 18:11:00,
2013-09-11 14:26:00,92.0,72.0,29.98,WNW,290,1.0,8.0,52,0.00,,,0.00,weatherlink.com 1.10,2013-09-11 18:26:00,
2013-09-11 14:41:00,92.4,71.0,29.97,WSW,251,3.0,12.0,49,0.00,,,0.00,weatherlink.com 1.10,2013-09-11 18:41:00,
2013-09-11 14:56:00,93.4,70.0,29.96,WNW,286,4.0,9.0,47,0.00,,,0.00,weatherlink.com 1.10,2013-09-11 18:56:00,
2013-09-11 15:11:00,92.4,71.0,29.96,West,280,0.0,6.0,50,0.00,,,0.00,weatherlink.com 1.10,2013-09-11 19:11:00,
2013-09-11 15:26:00,93.7,72.0,29.96,West,277,4.0,7.0,49,0.00,,,0.00,weatherlink.com 1.10,2013-09-11 19:26:00,
2013-09-11 15:41:00,94.0,71.0,29.95,West,277,2.0,8.0,48,0.00,,,0.00,weatherlink.com 1.10,2013-09-11 19:41:00,
2013-09-11 15:56:00,94.5,71.0,29.95,WSW,244,0.0,8.0,47,0.00,,,0.00,weatherlink.com 1.10,2013-09-11 19:56:00,
2013-09-11 16:11:00,93.6,71.0,29.94,WNW,282,0.0,11.0,48,0.00,,,0.00,weatherlink.com 1.10,2013-09-11 20:11:00,
2013-09-11 16:26:00,93.3,70.0,29.94,NE,49,3.0,10.0,46,0.00,,,0.00,weatherlink.com 1.10,2013-09-11 20:26:00,
2013-09-11 16:41:00,93.0,69.0,29.93,WNW,290,2.0,8.0,46,0.00,,,0.00,weatherlink.com 1.10,2013-09-11 20:41:00,
2013-09-11 16:56:00,92.9,70.0,29.92,WNW,293,7.0,10.0,47,0.00,,,0.00,weatherlink.com 1.10,2013-09-11 20:56:00,
2013-09-11 17:11:00,92.7,70.0,29.92,WSW,250,1.0,9.0,47,0.00,,,0.00,weatherlink.com 1.10,2013-09-11 21:11:00,
2013-09-11 17:26:00,91.6,69.0,29.92,WSW,242,0.0,11.0,47,0.00,,,0.00,weatherlink.com 1.10,2013-09-11 21:26:00,
2013-09-11 17:41:00,90.5,69.0,29.92,West,279,0.0,9.0,50,0.00,,,0.00,weatherlink.com 1.10,2013-09-11 21:41:00,
2013-09-11 17:56:00,89.8,69.0,29.92,WSW,242,0.0,8.0,50,0.00,,,0.00,weatherlink.com 1.10,2013-09-11 21:56:00,
2013-09-11 18:11:00,88.6,69.0,29.92,SSW,211,0.0,7.0,53,0.00,,,0.00,weatherlink.com 1.10,2013-09-11 22:11:00,
2013-09-11 18:26:00,87.1,70.0,29.92,SSW,206,0.0,2.0,58,0.00,,,0.00,weatherlink.com 1.10,2013-09-11 22:26:00,
2013-09-11 18:41:00,86.7,71.0,29.92,SW,217,1.0,6.0,60,0.00,,,0.00,weatherlink.com 1.10,2013-09-11 22:41:00,
2013-09-11 18:56:00,86.3,70.0,29.92,East,83,0.0,1.0,59,0.00,,,0.00,weatherlink.com 1.10,2013-09-11 22:56:00,
2013-09-11 19:11:00,85.0,70.0,29.94,North,5,6.0,14.0,61,0.00,,,0.00,weatherlink.com 1.10,2013-09-11 23:11:00,
2013-09-11 19:26:00,82.1,70.0,29.94,East,83,5.0,7.0,67,0.00,,,0.00,weatherlink.com 1.10,2013-09-11 23:26:00,
2013-09-11 19:41:00,80.6,70.0,29.95,North,9,4.0,7.0,70,0.00,,,0.00,weatherlink.com 1.10,2013-09-11 23:41:00,
2013-09-11 19:56:00,79.7,70.0,29.95,NE,43,3.0,5.0,72,0.00,,,0.00,weatherlink.com 1.10,2013-09-11 23:56:00,
2013-09-11 20:11:00,79.0,70.0,29.95,NNE,32,1.0,5.0,73,0.00,,,0.00,weatherlink.com 1.10,2013-09-12 00:11:00,
2013-09-11 20:26:00,78.4,70.0,29.95,NE,40,0.0,3.0,75,0.00,,,0.00,weatherlink.com 1.10,2013-09-12 00:26:00,
2013-09-11 20:41:00,77.8,70.0,29.96,NE,37,0.0,1.0,77,0.00,,,0.00,weatherlink.com 1.10,2013-09-12 00:41:00,
2013-09-11 20:56:00,77.2,70.0,29.96,NE,37,0.0,0.0,79,0.00,,,0.00,weatherlink.com 1.10,2013-09-12 00:56:00,
2013-09-11 21:11:00,76.4,70.0,29.96,NNW,342,0.0,0.0,81,0.00,,,0.00,weatherlink.com 1.10,2013-09-12 01:11:00,
2013-09-11 21:27:00,75.4,70.0,29.96,NNW,339,0.0,0.0,82,0.00,,,0.00,weatherlink.com 1.10,2013-09-12 01:27:00,
2013-09-11 21:42:00,74.8,70.0,29.96,NNW,339,0.0,0.0,84,0.00,,,0.00,weatherlink.com 1.10,2013-09-12 01:42:00,
2013-09-11 21:57:00,74.3,70.0,29.96,NNW,339,0.0,0.0,85,0.00,,,0.00,weatherlink.com 1.10,2013-09-12 01:57:00,
2013-09-11 22:12:00,73.9,70.0,29.96,NNW,339,0.0,0.0,86,0.00,,,0.00,weatherlink.com 1.10,2013-09-12 02:12:00,
2013-09-11 22:27:00,74.1,70.0,29.96,NNW,339,0.0,0.0,86,0.00,,,0.00,weatherlink.com 1.10,2013-09-12 02:27:00,
2013-09-11 22:42:00,73.6,70.0,29.97,WSW,258,0.0,2.0,88,0.00,,,0.00,weatherlink.com 1.10,2013-09-12 02:42:00,
2013-09-11 22:57:00,73.5,70.0,29.97,WSW,258,0.0,0.0,88,0.00,,,0.00,weatherlink.com 1.10,2013-09-12 02:57:00,
2013-09-11 23:12:00,73.4,70.0,29.97,West,259,0.0,0.0,90,0.00,,,0.00,weatherlink.com 1.10,2013-09-12 03:12:00,
2013-09-11 23:27:00,73.3,70.0,29.97,NW,312,1.0,2.0,90,0.00,,,0.00,weatherlink.com 1.10,2013-09-12 03:27:00,
2013-09-11 23:42:00,73.3,70.0,29.96,NW,311,0.0,0.0,90,0.00,,,0.00,weatherlink.com 1.10,2013-09-12 03:42:00,
2013-09-11 23:57:00,72.5,70.0,29.95,NW,311,0.0,0.0,90,0.00,,,0.00,weatherlink.com 1.10,2013-09-12 03:57:00,